createdAt,value
2018-09-29T00:01:08.059Z,99.90
2018-09-29T00:03:36.366Z,99.90
2018-09-29T00:06:04.700Z,99.90
2018-09-29T00:08:32.955Z,99.90
2018-09-29T00:11:01.369Z,99.90
2018-09-29T00:13:29.737Z,99.90
2018-09-29T00:15:58.342Z,99.90
2018-09-29T00:18:27.364Z,99.90
2018-09-29T00:20:55.720Z,99.90
2018-09-29T00:23:24.285Z,99.90
2018-09-29T00:25:53.527Z,99.90
2018-09-29T00:28:22.200Z,99.90
2018-09-29T00:30:51.109Z,99.90
2018-09-29T00:33:19.447Z,99.90
2018-09-29T00:35:47.979Z,99.90
2018-09-29T00:38:16.306Z,99.90
2018-09-29T00:40:44.615Z,99.90
2018-09-29T00:43:13.343Z,99.90
2018-09-29T00:45:41.719Z,99.90
2018-09-29T00:48:10.287Z,99.90
2018-09-29T00:50:38.631Z,99.90
2018-09-29T00:53:07.246Z,99.90
2018-09-29T00:55:36.231Z,99.90
2018-09-29T00:58:04.583Z,99.90
2018-09-29T01:00:33.084Z,99.90
2018-09-29T01:03:01.797Z,99.90
2018-09-29T01:05:30.069Z,99.90
2018-09-29T01:07:58.392Z,99.90
2018-09-29T01:10:27.144Z,99.90
2018-09-29T01:12:55.413Z,99.90
2018-09-29T01:15:23.887Z,99.90
2018-09-29T01:17:52.524Z,99.90
2018-09-29T01:20:20.824Z,99.90
2018-09-29T01:22:49.142Z,99.90
2018-09-29T01:25:17.427Z,99.90
2018-09-29T01:27:45.749Z,99.90
2018-09-29T01:30:14.077Z,99.90
2018-09-29T01:32:42.416Z,99.90
2018-09-29T01:35:11.181Z,99.90
2018-09-29T01:37:39.559Z,99.90
2018-09-29T01:40:08.260Z,99.90
2018-09-29T01:42:36.560Z,99.90
2018-09-29T01:45:05.068Z,99.90
2018-09-29T01:47:33.476Z,99.90
2018-09-29T01:50:02.304Z,99.90
2018-09-29T01:52:39.334Z,99.90
2018-09-29T01:55:07.666Z,99.90
2018-09-29T01:57:36.366Z,99.90
2018-09-29T02:00:04.713Z,99.90
2018-09-29T02:02:33.488Z,99.90
2018-09-29T02:05:01.818Z,99.90
2018-09-29T02:07:30.111Z,99.90
2018-09-29T02:09:58.428Z,99.90
2018-09-29T02:12:27.103Z,99.90
2018-09-29T02:14:55.449Z,99.90
2018-09-29T02:17:24.039Z,99.90
2018-09-29T02:19:52.464Z,99.90
2018-09-29T02:22:20.813Z,99.90
2018-09-29T02:24:49.162Z,99.90
2018-09-29T02:27:17.661Z,99.90
2018-09-29T02:29:45.968Z,99.90
2018-09-29T02:32:14.312Z,99.90
2018-09-29T02:34:43.026Z,99.90
2018-09-29T02:37:11.388Z,99.90
2018-09-29T02:39:39.777Z,99.90
2018-09-29T02:42:08.537Z,99.90
2018-09-29T02:44:36.927Z,99.90
2018-09-29T02:47:05.539Z,99.90
2018-09-29T02:49:34.250Z,99.90
2018-09-29T02:52:02.871Z,99.90
2018-09-29T02:54:31.258Z,99.90
2018-09-29T02:56:59.852Z,99.90
2018-09-29T02:59:28.182Z,99.90
2018-09-29T03:01:56.564Z,99.90
2018-09-29T03:04:25.273Z,99.90
2018-09-29T03:06:53.633Z,99.90
2018-09-29T03:09:22.717Z,99.90
2018-09-29T03:11:51.343Z,99.90
2018-09-29T03:14:20.052Z,99.90
2018-09-29T03:16:48.655Z,99.90
2018-09-29T03:19:17.743Z,99.90
2018-09-29T03:21:46.101Z,99.90
2018-09-29T03:24:14.497Z,99.90
2018-09-29T03:26:42.818Z,99.90
2018-09-29T03:29:11.408Z,99.90
2018-09-29T03:31:40.050Z,99.90
2018-09-29T03:34:08.555Z,99.90
2018-09-29T03:36:36.904Z,99.90
2018-09-29T03:39:07.550Z,99.90
2018-09-29T03:41:36.316Z,99.90
2018-09-29T03:44:04.986Z,99.90
2018-09-29T03:46:33.370Z,99.90
2018-09-29T03:49:02.040Z,99.90
2018-09-29T03:51:31.026Z,99.90
2018-09-29T03:53:59.487Z,99.90
2018-09-29T03:56:27.836Z,99.90
2018-09-29T03:58:56.233Z,99.90
2018-09-29T04:01:24.711Z,99.90
2018-09-29T04:03:53.047Z,99.90
2018-09-29T04:06:21.440Z,99.90
2018-09-29T04:08:49.771Z,99.90
2018-09-29T04:11:18.197Z,99.90
2018-09-29T04:13:46.886Z,99.90
2018-09-29T04:16:15.249Z,99.90
2018-09-29T04:18:43.855Z,99.90
2018-09-29T04:21:12.193Z,99.90
2018-09-29T04:23:41.195Z,99.90
2018-09-29T04:26:10.182Z,99.90
2018-09-29T04:28:38.854Z,99.90
2018-09-29T04:31:07.445Z,99.90
2018-09-29T04:33:35.800Z,99.90
2018-09-29T04:36:04.152Z,99.90
2018-09-29T04:38:32.502Z,99.90
2018-09-29T04:41:01.588Z,99.90
2018-09-29T04:43:30.109Z,99.90
2018-09-29T04:45:58.685Z,99.90
2018-09-29T04:48:27.353Z,99.90
2018-09-29T04:50:56.091Z,99.90
2018-09-29T04:53:24.462Z,99.90
2018-09-29T04:55:52.865Z,99.90
2018-09-29T04:58:21.487Z,99.90
2018-09-29T05:00:50.196Z,99.90
2018-09-29T05:03:18.895Z,99.90
2018-09-29T05:05:47.314Z,99.90
2018-09-29T05:08:15.940Z,99.90
2018-09-29T05:10:44.639Z,99.90
2018-09-29T05:13:13.270Z,99.90
2018-09-29T05:15:41.676Z,99.90
2018-09-29T05:18:09.970Z,99.90
2018-09-29T05:20:38.739Z,99.90
2018-09-29T05:23:07.117Z,99.90
2018-09-29T05:25:35.520Z,99.90
2018-09-29T05:28:03.856Z,99.90
2018-09-29T05:30:32.238Z,99.90
2018-09-29T05:33:00.654Z,99.90
2018-09-29T05:35:29.246Z,99.90
2018-09-29T05:37:57.589Z,99.90
2018-09-29T05:40:25.961Z,99.90
2018-09-29T05:42:54.319Z,99.90
2018-09-29T05:45:22.758Z,99.90
2018-09-29T05:47:51.392Z,99.90
2018-09-29T05:50:19.807Z,99.90
2018-09-29T05:52:48.626Z,99.90
2018-09-29T05:55:17.087Z,99.90
2018-09-29T05:57:45.578Z,99.90
2018-09-29T06:00:14.036Z,99.90
2018-09-29T06:02:42.746Z,99.90
2018-09-29T06:05:11.205Z,99.90
2018-09-29T06:07:39.636Z,99.90
2018-09-29T06:10:08.047Z,99.90
2018-09-29T06:12:36.432Z,99.90
2018-09-29T06:15:04.878Z,99.90
2018-09-29T06:17:33.724Z,99.90
2018-09-29T06:20:02.116Z,99.90
2018-09-29T06:22:30.692Z,99.90
2018-09-29T06:24:59.067Z,99.90
2018-09-29T06:27:28.113Z,99.90
2018-09-29T06:29:56.437Z,99.90
2018-09-29T06:32:25.579Z,99.90
2018-09-29T06:34:54.368Z,99.90
2018-09-29T06:37:23.591Z,99.90
2018-09-29T06:39:52.251Z,99.90
2018-09-29T06:42:20.667Z,99.90
2018-09-29T06:44:49.120Z,99.90
2018-09-29T06:47:17.479Z,99.90
2018-09-29T06:49:46.355Z,99.90
2018-09-29T06:52:14.787Z,99.90
2018-09-29T06:54:43.418Z,99.90
2018-09-29T06:57:11.835Z,99.90
2018-09-29T06:59:40.455Z,99.90
2018-09-29T07:02:08.853Z,99.90
2018-09-29T07:04:37.149Z,99.90
2018-09-29T07:07:06.389Z,99.90
2018-09-29T07:09:35.140Z,99.90
2018-09-29T07:12:03.580Z,99.90
2018-09-29T07:14:32.051Z,99.90
2018-09-29T07:17:03.597Z,99.90
2018-09-29T07:19:32.021Z,99.90
2018-09-29T07:22:00.686Z,99.90
2018-09-29T07:24:29.140Z,99.90
2018-09-29T07:26:57.936Z,99.90
2018-09-29T07:29:26.603Z,99.90
2018-09-29T07:31:54.975Z,99.90
2018-09-29T07:34:23.394Z,99.90
2018-09-29T07:36:52.727Z,99.90
2018-09-29T07:39:21.496Z,99.90
2018-09-29T07:41:50.189Z,99.90
2018-09-29T07:44:18.519Z,99.90
2018-09-29T07:46:47.209Z,99.90
2018-09-29T07:49:25.140Z,99.90
2018-09-29T07:51:53.442Z,99.90
2018-09-29T07:54:21.749Z,99.60
2018-09-29T07:56:50.252Z,99.60
2018-09-29T07:59:18.995Z,99.60
2018-09-29T08:01:47.853Z,99.80
2018-09-29T08:04:16.241Z,99.40
2018-09-29T08:06:44.645Z,99.20
2018-09-29T08:09:13.577Z,99.10
2018-09-29T08:11:42.267Z,99.00
2018-09-29T08:14:10.618Z,98.70
2018-09-29T08:16:39.227Z,98.90
2018-09-29T08:19:07.798Z,98.80
2018-09-29T08:21:36.202Z,98.70
2018-09-29T08:24:04.583Z,98.60
2018-09-29T08:26:32.992Z,98.70
2018-09-29T08:29:01.382Z,98.40
2018-09-29T08:31:30.503Z,98.30
2018-09-29T08:33:59.155Z,98.10
2018-09-29T08:36:27.551Z,98.10
2018-09-29T08:38:55.904Z,98.00
2018-09-29T08:41:24.714Z,97.80
2018-09-29T08:43:53.086Z,97.80
2018-09-29T08:46:21.637Z,97.80
2018-09-29T08:48:50.043Z,97.70
2018-09-29T08:51:19.121Z,97.80
2018-09-29T08:53:47.612Z,97.40
2018-09-29T08:56:15.887Z,97.00
2018-09-29T08:58:44.703Z,97.40
2018-09-29T09:01:13.058Z,97.50
2018-09-29T09:03:41.650Z,97.20
2018-09-29T09:06:10.293Z,97.10
2018-09-29T09:08:38.649Z,96.90
2018-09-29T09:11:07.063Z,96.60
2018-09-29T09:13:35.415Z,96.80
2018-09-29T09:16:04.304Z,96.40
2018-09-29T09:18:32.643Z,96.20
2018-09-29T09:21:01.647Z,96.20
2018-09-29T09:23:30.303Z,95.70
2018-09-29T09:25:58.953Z,95.90
2018-09-29T09:28:27.468Z,95.60
2018-09-29T09:30:55.801Z,95.30
2018-09-29T09:33:24.303Z,95.00
2018-09-29T09:35:52.659Z,94.70
2018-09-29T09:38:21.423Z,94.90
2018-09-29T09:40:50.250Z,94.60
2018-09-29T09:43:18.685Z,94.30
2018-09-29T09:45:47.442Z,94.50
2018-09-29T09:48:15.795Z,94.00
2018-09-29T09:50:44.932Z,94.20
2018-09-29T09:53:13.246Z,93.70
2018-09-29T09:55:41.862Z,93.40
2018-09-29T09:58:10.759Z,93.40
2018-09-29T10:00:44.601Z,93.30
2018-09-29T10:03:18.191Z,93.00
2018-09-29T10:05:47.108Z,92.80
2018-09-29T10:08:15.788Z,93.30
2018-09-29T10:10:44.174Z,92.90
2018-09-29T10:13:12.806Z,93.00
2018-09-29T10:15:41.709Z,92.10
2018-09-29T10:18:10.122Z,91.90
2018-09-29T10:20:38.855Z,91.80
2018-09-29T10:23:07.334Z,91.60
2018-09-29T10:25:35.977Z,91.70
2018-09-29T10:28:04.424Z,91.60
2018-09-29T10:30:33.351Z,91.40
2018-09-29T10:33:02.024Z,91.30
2018-09-29T10:35:30.588Z,91.20
2018-09-29T10:38:02.349Z,91.30
2018-09-29T10:40:30.926Z,91.60
2018-09-29T10:42:59.261Z,91.60
2018-09-29T10:45:28.160Z,91.00
2018-09-29T10:47:56.439Z,90.90
2018-09-29T10:50:25.058Z,90.70
2018-09-29T10:52:53.421Z,90.60
2018-09-29T10:55:22.933Z,90.20
2018-09-29T10:57:51.560Z,90.00
2018-09-29T11:00:19.812Z,90.20
2018-09-29T11:02:48.110Z,89.60
2018-09-29T11:05:17.098Z,89.70
2018-09-29T11:07:45.426Z,89.30
2018-09-29T11:10:14.146Z,89.50
2018-09-29T11:12:42.481Z,88.90
2018-09-29T11:15:11.167Z,88.90
2018-09-29T11:17:39.727Z,88.70
2018-09-29T11:20:08.011Z,88.40
2018-09-29T11:22:37.139Z,88.30
2018-09-29T11:25:05.439Z,88.40
2018-09-29T11:27:34.025Z,88.30
2018-09-29T11:30:02.366Z,86.70
2018-09-29T11:32:30.949Z,86.60
2018-09-29T11:34:59.242Z,87.30
2018-09-29T11:37:28.292Z,87.30
2018-09-29T11:39:56.612Z,86.20
2018-09-29T11:42:25.056Z,86.50
2018-09-29T11:44:53.719Z,85.80
2018-09-29T11:47:21.954Z,85.20
2018-09-29T11:49:50.284Z,85.10
2018-09-29T11:52:18.936Z,85.20
2018-09-29T11:54:47.187Z,84.10
2018-09-29T11:57:15.698Z,84.70
2018-09-29T11:59:44.071Z,85.20
2018-09-29T12:02:13.009Z,83.20
2018-09-29T12:04:42.068Z,82.40
2018-09-29T12:07:10.824Z,82.30
2018-09-29T12:09:39.448Z,81.70
2018-09-29T12:12:08.162Z,81.30
2018-09-29T12:14:36.442Z,81.70
2018-09-29T12:17:05.275Z,80.30
2018-09-29T12:19:33.936Z,79.30
2018-09-29T12:22:02.293Z,79.10
2018-09-29T12:24:30.624Z,80.50
2018-09-29T12:26:59.307Z,79.60
2018-09-29T12:29:27.705Z,78.90
2018-09-29T12:31:56.450Z,78.20
2018-09-29T12:34:25.099Z,78.80
2018-09-29T12:36:54.464Z,79.30
2018-09-29T12:39:22.757Z,78.50
2018-09-29T12:41:51.117Z,77.80
2018-09-29T12:44:19.462Z,78.00
2018-09-29T12:46:48.349Z,76.90
2018-09-29T12:49:16.628Z,76.40
2018-09-29T12:51:45.000Z,76.50
2018-09-29T12:54:13.283Z,77.80
2018-09-29T12:56:41.596Z,79.20
2018-09-29T12:59:09.966Z,78.30
2018-09-29T13:01:38.488Z,76.00
2018-09-29T13:04:07.160Z,76.30
2018-09-29T13:06:36.086Z,77.50
2018-09-29T13:09:05.377Z,77.50
2018-09-29T13:14:29.565Z,75.70
2018-09-29T13:16:58.007Z,75.70
2018-09-29T13:19:26.637Z,76.30
2018-09-29T13:21:55.451Z,76.10
2018-09-29T13:24:24.213Z,74.70
2018-09-29T13:26:52.532Z,76.00
2018-09-29T13:29:20.835Z,74.30
2018-09-29T13:31:49.260Z,74.30
2018-09-29T13:34:17.551Z,75.40
2018-09-29T13:36:45.852Z,74.60
2018-09-29T13:39:14.168Z,74.90
2018-09-29T13:41:42.546Z,73.80
2018-09-29T13:44:10.928Z,74.20
2018-09-29T13:46:39.299Z,73.70
2018-09-29T13:49:07.671Z,75.30
2018-09-29T13:51:36.039Z,73.90
2018-09-29T13:54:04.720Z,73.40
2018-09-29T13:56:33.270Z,73.50
2018-09-29T13:59:01.615Z,72.70
2018-09-29T14:01:30.235Z,73.60
2018-09-29T14:03:58.838Z,74.30
2018-09-29T14:06:27.245Z,72.60
2018-09-29T14:08:56.773Z,73.10
2018-09-29T14:11:25.117Z,74.00
2018-09-29T14:13:53.395Z,74.20
2018-09-29T14:16:21.678Z,72.10
2018-09-29T14:18:49.925Z,72.30
2018-09-29T14:21:20.201Z,73.00
2018-09-29T14:23:48.810Z,73.40
2018-09-29T14:26:17.226Z,73.30
2018-09-29T14:28:45.716Z,74.00
2018-09-29T14:31:14.725Z,73.60
2018-09-29T14:33:43.392Z,72.80
2018-09-29T14:36:12.059Z,72.60
2018-09-29T14:38:40.940Z,71.70
2018-09-29T14:41:09.566Z,71.80
2018-09-29T14:43:37.886Z,73.20
2018-09-29T14:46:06.415Z,71.90
2018-09-29T14:48:34.697Z,73.10
2018-09-29T14:51:03.054Z,73.60
2018-09-29T14:53:31.293Z,72.80
2018-09-29T14:55:59.545Z,73.30
2018-09-29T14:58:28.254Z,73.90
2018-09-29T15:00:56.590Z,73.90
2018-09-29T15:03:25.275Z,74.60
2018-09-29T15:05:53.570Z,75.20
2018-09-29T15:08:21.849Z,74.30
2018-09-29T15:10:50.639Z,74.50
2018-09-29T15:13:18.924Z,74.30
2018-09-29T15:15:47.236Z,74.40
2018-09-29T15:18:15.578Z,74.80
2018-09-29T15:20:43.886Z,74.10
2018-09-29T15:23:12.725Z,74.10
2018-09-29T15:25:41.453Z,74.30
2018-09-29T15:28:09.749Z,74.40
2018-09-29T15:30:38.435Z,74.70
2018-09-29T15:33:07.036Z,74.90
2018-09-29T15:35:35.335Z,74.50
2018-09-29T15:38:03.825Z,74.30
2018-09-29T15:40:32.409Z,74.80
2018-09-29T15:43:01.204Z,73.60
2018-09-29T15:45:29.618Z,74.30
2018-09-29T15:47:57.918Z,73.40
2018-09-29T15:50:26.914Z,73.00
2018-09-29T15:52:55.250Z,73.90
2018-09-29T15:55:23.683Z,74.50
2018-09-29T15:57:52.007Z,74.20
2018-09-29T16:00:20.282Z,73.00
2018-09-29T16:02:49.015Z,73.60
2018-09-29T16:05:17.344Z,74.20
2018-09-29T16:07:45.655Z,73.70
2018-09-29T16:10:13.963Z,72.60
2018-09-29T16:12:42.294Z,73.60
2018-09-29T16:15:10.615Z,73.40
2018-09-29T16:17:39.181Z,73.90
2018-09-29T16:20:07.592Z,74.10
2018-09-29T16:22:35.928Z,74.80
2018-09-29T16:25:04.242Z,74.00
2018-09-29T16:27:32.601Z,73.40
2018-09-29T16:30:00.922Z,73.20
2018-09-29T16:32:29.212Z,73.40
2018-09-29T16:34:57.486Z,73.80
2018-09-29T16:37:25.802Z,73.50
2018-09-29T16:39:54.179Z,74.30
2018-09-29T16:42:22.523Z,74.00
2018-09-29T16:44:50.831Z,74.60
2018-09-29T16:47:19.146Z,75.40
2018-09-29T16:49:47.409Z,74.00
2018-09-29T16:52:15.757Z,74.30
2018-09-29T16:54:44.073Z,74.30
2018-09-29T16:57:12.657Z,74.80
2018-09-29T16:59:40.951Z,75.00
2018-09-29T17:02:09.254Z,76.10
2018-09-29T17:04:37.633Z,75.40
2018-09-29T17:07:05.864Z,75.10
2018-09-29T17:09:34.195Z,75.60
2018-09-29T17:12:02.488Z,76.20
2018-09-29T17:14:30.967Z,75.70
2018-09-29T17:16:59.646Z,76.40
2018-09-29T17:19:28.208Z,77.70
2018-09-29T17:21:56.778Z,76.30
2018-09-29T17:24:26.106Z,77.00
2018-09-29T17:26:55.270Z,77.60
2018-09-29T17:29:23.645Z,77.40
2018-09-29T17:31:51.987Z,77.80
2018-09-29T17:34:20.271Z,77.40
2018-09-29T17:36:48.552Z,78.60
2018-09-29T17:39:16.883Z,78.60
2018-09-29T17:41:45.257Z,79.10
2018-09-29T17:44:13.524Z,78.90
2018-09-29T17:46:41.821Z,78.50
2018-09-29T17:49:10.087Z,78.10
2018-09-29T17:51:38.427Z,78.80
2018-09-29T17:54:06.776Z,78.60
2018-09-29T17:56:35.038Z,79.90
2018-09-29T17:59:03.395Z,79.20
2018-09-29T18:01:31.758Z,79.70
2018-09-29T18:04:00.223Z,80.80
2018-09-29T18:06:28.545Z,80.70
2018-09-29T18:08:56.962Z,81.00
2018-09-29T18:11:25.231Z,80.40
2018-09-29T18:13:53.590Z,81.10
2018-09-29T18:16:21.892Z,80.60
2018-09-29T18:18:50.230Z,81.30
2018-09-29T18:21:18.581Z,80.60
2018-09-29T18:23:46.909Z,80.50
2018-09-29T18:26:15.564Z,81.60
2018-09-29T18:28:43.967Z,80.90
2018-09-29T18:31:12.375Z,81.50
2018-09-29T18:33:40.735Z,80.70
2018-09-29T18:36:09.134Z,80.90
2018-09-29T18:38:37.747Z,81.50
2018-09-29T18:41:06.401Z,81.60
2018-09-29T18:43:34.699Z,81.70
2018-09-29T18:46:03.019Z,82.40
2018-09-29T18:48:31.332Z,82.10
2018-09-29T18:50:59.682Z,82.90
2018-09-29T18:53:27.969Z,83.00
2018-09-29T18:55:56.248Z,83.30
2018-09-29T18:58:24.824Z,83.80
2018-09-29T19:00:53.498Z,83.40
2018-09-29T19:03:21.808Z,83.70
2018-09-29T19:05:50.076Z,83.80
2018-09-29T19:08:18.392Z,84.20
2018-09-29T19:10:46.656Z,84.10
2018-09-29T19:13:14.942Z,83.80
2018-09-29T19:15:43.567Z,84.10
2018-09-29T19:18:11.869Z,83.90
2018-09-29T19:20:40.189Z,83.80
2018-09-29T19:23:08.504Z,84.10
2018-09-29T19:25:36.850Z,84.70
2018-09-29T19:28:05.406Z,84.30
2018-09-29T19:30:33.802Z,84.80
2018-09-29T19:33:02.117Z,84.30
2018-09-29T19:35:30.421Z,84.50
2018-09-29T19:37:59.036Z,84.30
2018-09-29T19:40:27.547Z,84.50
2018-09-29T19:42:55.829Z,85.10
2018-09-29T19:45:24.887Z,84.80
2018-09-29T19:47:53.207Z,85.10
2018-09-29T19:50:21.986Z,85.40
2018-09-29T19:52:50.270Z,85.30
2018-09-29T19:55:19.085Z,85.40
2018-09-29T19:57:47.740Z,85.80
2018-09-29T20:00:16.434Z,84.90
2018-09-29T20:02:44.800Z,85.60
2018-09-29T20:05:13.142Z,85.70
2018-09-29T20:07:41.472Z,86.00
2018-09-29T20:10:09.858Z,86.00
2018-09-29T20:12:38.148Z,86.60
2018-09-29T20:15:06.445Z,86.70
2018-09-29T20:17:34.761Z,87.50
2018-09-29T20:20:03.087Z,86.90
2018-09-29T20:22:31.689Z,87.00
2018-09-29T20:25:00.345Z,87.40
2018-09-29T20:27:28.638Z,86.90
2018-09-29T20:29:57.031Z,87.10
2018-09-29T20:32:25.352Z,88.10
2018-09-29T20:34:53.650Z,87.70
2018-09-29T20:37:22.255Z,89.00
2018-09-29T20:39:50.563Z,89.20
2018-09-29T20:42:19.271Z,89.60
2018-09-29T20:44:47.666Z,90.00
2018-09-29T20:47:16.112Z,90.30
2018-09-29T20:49:44.439Z,90.40
2018-09-29T20:52:13.072Z,90.70
2018-09-29T20:54:41.424Z,90.50
2018-09-29T20:57:09.748Z,90.60
2018-09-29T20:59:38.067Z,90.70
2018-09-29T21:02:06.448Z,90.70
2018-09-29T21:04:35.120Z,91.30
2018-09-29T21:07:03.451Z,91.40
2018-09-29T21:09:32.123Z,91.70
2018-09-29T21:12:00.655Z,91.50
2018-09-29T21:14:28.930Z,91.60
2018-09-29T21:16:58.309Z,91.50
2018-09-29T21:19:26.603Z,91.50
2018-09-29T21:21:54.905Z,91.50
2018-09-29T21:24:23.175Z,91.30
2018-09-29T21:26:51.887Z,91.20
2018-09-29T21:29:20.264Z,90.90
2018-09-29T21:31:48.585Z,91.40
2018-09-29T21:34:16.922Z,92.00
2018-09-29T21:36:51.855Z,92.10
2018-09-29T21:39:20.182Z,91.80
2018-09-29T21:41:48.516Z,91.70
2018-09-29T21:44:16.821Z,90.90
2018-09-29T21:46:51.919Z,91.30
2018-09-29T21:49:20.292Z,91.30
2018-09-29T21:51:48.579Z,91.50
2018-09-29T21:54:16.910Z,91.90
2018-09-29T21:56:45.244Z,91.80
2018-09-29T21:59:13.554Z,91.80
2018-09-29T22:01:41.930Z,92.20
2018-09-29T22:04:10.206Z,91.80
2018-09-29T22:06:38.561Z,91.80
2018-09-29T22:09:07.788Z,92.20
2018-09-29T22:11:36.415Z,91.90
2018-09-29T22:14:04.681Z,91.40
2018-09-29T22:16:33.413Z,91.50
2018-09-29T22:19:01.666Z,92.00
2018-09-29T22:21:29.968Z,92.20
2018-09-29T22:23:58.280Z,92.10
2018-09-29T22:26:26.579Z,92.00
2018-09-29T22:28:54.832Z,92.20
2018-09-29T22:31:23.416Z,92.00
2018-09-29T22:33:52.081Z,92.10
2018-09-29T22:36:20.367Z,91.80
2018-09-29T22:38:48.623Z,92.60
2018-09-29T22:41:16.913Z,92.60
2018-09-29T22:43:45.192Z,92.80
2018-09-29T22:46:13.476Z,92.30
2018-09-29T22:48:41.757Z,92.80
2018-09-29T22:51:10.104Z,93.10
2018-09-29T22:53:38.400Z,92.70
2018-09-29T22:56:06.718Z,92.80
2018-09-29T22:58:35.053Z,92.50
2018-09-29T23:01:03.356Z,93.10
2018-09-29T23:03:32.078Z,93.10
2018-09-29T23:06:00.362Z,93.10
2018-09-29T23:08:28.644Z,94.00
2018-09-29T23:10:57.973Z,94.10
2018-09-29T23:13:26.715Z,94.20
2018-09-29T23:15:55.283Z,94.70
2018-09-29T23:18:23.635Z,95.10
2018-09-29T23:20:51.917Z,95.50
2018-09-29T23:23:20.247Z,95.80
2018-09-29T23:25:48.515Z,96.30
2018-09-29T23:28:17.444Z,96.30
2018-09-29T23:30:45.718Z,96.70
2018-09-29T23:33:14.042Z,96.90
2018-09-29T23:35:42.587Z,97.10
2018-09-29T23:38:10.909Z,97.40
2018-09-29T23:40:39.229Z,97.20
2018-09-29T23:43:07.554Z,96.80
2018-09-29T23:45:35.901Z,96.40
2018-09-29T23:48:04.209Z,96.50
2018-09-29T23:50:32.533Z,97.50
2018-09-29T23:53:00.783Z,97.10
2018-09-29T23:55:29.105Z,97.70
2018-09-29T23:57:57.448Z,96.80
